createdAt,value
2019-02-25T00:01:58.741Z,55.43
2019-02-25T00:04:29.152Z,49.93
2019-02-25T00:06:59.417Z,57.43
2019-02-25T00:09:30.825Z,54.17
2019-02-25T00:12:02.298Z,64.47
2019-02-25T00:14:32.810Z,67.10
2019-02-25T00:17:04.282Z,55.50
2019-02-25T00:19:35.709Z,59.63
2019-02-25T00:22:05.987Z,63.53
2019-02-25T00:24:36.231Z,49.77
2019-02-25T00:27:06.704Z,59.87
2019-02-25T00:29:38.145Z,50.57
2019-02-25T00:32:09.680Z,63.77
2019-02-25T00:34:41.049Z,82.63
2019-02-25T00:37:12.498Z,87.70
2019-02-25T00:39:43.956Z,70.30
2019-02-25T00:42:15.083Z,81.63
2019-02-25T00:44:46.536Z,68.73
2019-02-25T00:47:17.992Z,49.43
2019-02-25T00:49:49.443Z,41.27
2019-02-25T00:52:20.884Z,42.77
2019-02-25T00:54:51.132Z,38.13
2019-02-25T00:57:23.488Z,31.93
2019-02-25T00:59:56.167Z,31.13
2019-02-25T01:02:28.536Z,32.00
2019-02-25T01:05:00.910Z,32.17
2019-02-25T01:07:32.364Z,37.13
2019-02-25T01:10:07.457Z,39.80
2019-02-25T01:12:37.725Z,33.70
2019-02-25T01:15:09.181Z,39.83
2019-02-25T01:17:40.627Z,47.53
2019-02-25T01:20:14.944Z,53.10
2019-02-25T01:22:45.368Z,43.97
2019-02-25T01:25:18.384Z,36.20
2019-02-25T01:27:49.808Z,33.30
2019-02-25T01:30:21.439Z,37.83
2019-02-25T01:32:51.804Z,38.80
2019-02-25T01:35:24.179Z,41.27
2019-02-25T01:37:55.619Z,34.40
2019-02-25T01:40:27.069Z,32.47
2019-02-25T01:42:58.209Z,39.13
2019-02-25T01:45:29.664Z,34.90
2019-02-25T01:48:01.108Z,34.13
2019-02-25T01:50:33.487Z,49.90
2019-02-25T01:53:06.010Z,65.13
2019-02-25T01:55:36.389Z,64.13
2019-02-25T01:58:07.839Z,83.47
2019-02-25T02:00:40.520Z,76.70
2019-02-25T02:03:11.971Z,79.33
2019-02-25T02:05:43.424Z,82.30
2019-02-25T02:08:14.871Z,67.97
2019-02-25T02:10:46.328Z,39.87
2019-02-25T02:13:18.731Z,35.23
2019-02-25T02:15:50.149Z,37.27
2019-02-25T02:18:22.825Z,36.20
2019-02-25T02:20:56.282Z,27.93
2019-02-25T02:23:26.650Z,33.73
2019-02-25T02:25:58.101Z,30.87
2019-02-25T02:28:29.552Z,28.83
2019-02-25T02:31:01.008Z,30.23
2019-02-25T02:33:33.381Z,34.00
2019-02-25T02:36:04.834Z,28.40
2019-02-25T02:38:37.523Z,25.93
2019-02-25T02:41:08.959Z,28.57
2019-02-25T02:43:41.655Z,31.90
2019-02-25T02:46:25.626Z,27.00
2019-02-25T02:48:59.417Z,31.00
2019-02-25T02:51:29.816Z,28.50
2019-02-25T02:54:01.279Z,28.93
2019-02-25T02:56:33.042Z,28.37
2019-02-25T02:59:03.295Z,27.57
2019-02-25T03:01:34.700Z,28.00
2019-02-25T03:04:04.941Z,31.93
2019-02-25T03:06:36.392Z,37.17
2019-02-25T03:09:09.478Z,36.90
2019-02-25T03:11:40.199Z,38.30
2019-02-25T03:14:11.660Z,36.57
2019-02-25T03:16:43.103Z,30.47
2019-02-25T03:19:15.779Z,21.37
2019-02-25T03:21:47.290Z,25.90
2019-02-25T03:24:18.688Z,23.07
2019-02-25T03:26:51.049Z,22.87
2019-02-25T03:29:21.295Z,26.77
2019-02-25T03:31:52.737Z,23.03
2019-02-25T03:34:23.268Z,27.00
2019-02-25T03:36:54.711Z,37.43
2019-02-25T03:39:26.169Z,30.40
2019-02-25T03:41:57.613Z,28.23
2019-02-25T03:44:29.075Z,24.83
2019-02-25T03:47:00.520Z,28.17
2019-02-25T03:49:31.976Z,28.27
2019-02-25T03:52:03.428Z,29.87
2019-02-25T03:54:34.881Z,62.87
2019-02-25T03:57:06.323Z,40.13
2019-02-25T03:59:37.850Z,34.90
2019-02-25T04:02:10.766Z,31.67
2019-02-25T04:04:42.220Z,25.50
2019-02-25T04:07:13.665Z,30.87
2019-02-25T04:09:45.119Z,26.03
2019-02-25T04:12:16.569Z,27.47
2019-02-25T04:14:48.030Z,36.60
2019-02-25T04:17:20.389Z,33.30
2019-02-25T04:19:52.767Z,37.77
2019-02-25T04:22:24.832Z,34.47
2019-02-25T04:24:56.286Z,33.13
2019-02-25T04:27:27.733Z,30.83
2019-02-25T04:29:57.980Z,33.00
2019-02-25T04:32:29.405Z,33.30
2019-02-25T04:35:00.862Z,43.43
2019-02-25T04:37:31.095Z,38.70
2019-02-25T04:40:01.925Z,42.17
2019-02-25T04:42:36.137Z,48.27
2019-02-25T04:45:16.592Z,45.63
2019-02-25T04:47:47.022Z,50.13
2019-02-25T04:50:19.395Z,60.43
2019-02-25T04:52:50.856Z,54.20
2019-02-25T04:55:22.320Z,47.77
2019-02-25T04:57:53.755Z,42.77
2019-02-25T05:00:26.545Z,52.30
2019-02-25T05:02:56.965Z,47.23
2019-02-25T05:05:28.425Z,39.83
2019-02-25T05:07:59.873Z,53.53
2019-02-25T05:10:31.334Z,45.60
2019-02-25T05:13:06.175Z,46.17
2019-02-25T05:15:40.277Z,45.10
2019-02-25T05:18:10.596Z,42.20
2019-02-25T05:20:40.860Z,38.17
2019-02-25T05:23:12.260Z,37.13
2019-02-25T05:25:43.711Z,41.30
2019-02-25T05:28:15.162Z,32.67
2019-02-25T05:30:46.674Z,35.53
2019-02-25T05:33:17.152Z,39.97
2019-02-25T05:35:48.593Z,48.20
2019-02-25T05:38:18.840Z,54.43
2019-02-25T05:40:50.271Z,59.23
2019-02-25T05:43:21.716Z,53.57
2019-02-25T05:45:53.171Z,56.43
2019-02-25T05:48:24.640Z,61.20
2019-02-25T05:50:56.077Z,58.87
2019-02-25T05:53:27.526Z,62.50
2019-02-25T05:55:58.978Z,61.77
2019-02-25T05:58:31.348Z,54.90
2019-02-25T06:01:02.815Z,48.37
2019-02-25T06:03:34.255Z,44.47
2019-02-25T06:06:05.701Z,45.67
2019-02-25T06:08:38.385Z,38.63
2019-02-25T06:11:09.837Z,32.77
2019-02-25T06:13:41.289Z,31.03
2019-02-25T06:16:12.737Z,29.03
2019-02-25T06:18:44.192Z,27.20
2019-02-25T06:21:15.649Z,39.63
2019-02-25T06:23:47.237Z,27.20
2019-02-25T06:26:19.272Z,27.37
2019-02-25T06:28:51.473Z,48.90
2019-02-25T06:31:24.827Z,38.37
2019-02-25T06:33:55.093Z,76.13
2019-02-25T06:36:27.431Z,128.10
2019-02-25T06:38:58.803Z,123.40
2019-02-25T06:41:30.224Z,132.00
2019-02-25T06:44:00.541Z,102.97
2019-02-25T06:46:32.959Z,77.93
2019-02-25T06:49:04.384Z,74.33
2019-02-25T06:51:35.985Z,73.10
2019-02-25T06:54:06.370Z,83.67
2019-02-25T06:56:36.739Z,82.27
2019-02-25T06:59:08.032Z,82.33
2019-02-25T07:01:38.293Z,70.90
2019-02-25T07:04:17.395Z,73.50
2019-02-25T07:06:50.199Z,72.10
2019-02-25T07:09:31.832Z,62.20
2019-02-25T07:12:06.502Z,63.37
2019-02-25T07:14:38.383Z,57.20
2019-02-25T07:17:29.406Z,46.63
2019-02-25T07:20:10.394Z,42.50
2019-02-25T07:22:50.219Z,64.50
2019-02-25T07:25:22.244Z,68.77
2019-02-25T07:28:10.463Z,57.63
2019-02-25T07:30:58.759Z,46.87
2019-02-25T07:33:44.395Z,48.93
2019-02-25T07:36:18.714Z,42.17
2019-02-25T07:38:59.764Z,43.50
2019-02-25T07:41:34.749Z,47.85
2019-02-25T07:44:07.911Z,41.85
2019-02-25T07:46:45.613Z,39.88
2019-02-25T07:49:23.655Z,34.83
2019-02-25T07:52:02.063Z,38.85
2019-02-25T07:54:53.988Z,40.28
2019-02-25T07:57:28.747Z,43.42
2019-02-25T08:00:03.685Z,53.30
2019-02-25T08:02:43.102Z,52.25
2019-02-25T08:05:17.742Z,50.73
2019-02-25T08:08:06.141Z,48.55
2019-02-25T08:10:44.115Z,44.85
2019-02-25T08:13:16.005Z,43.75
2019-02-25T08:15:56.744Z,50.10
2019-02-25T08:18:37.530Z,39.92
2019-02-25T08:21:21.259Z,42.53
2019-02-25T08:24:05.054Z,45.80
2019-02-25T08:26:53.105Z,46.08
2019-02-25T08:29:37.004Z,44.10
2019-02-25T08:32:20.797Z,50.80
2019-02-25T08:35:07.691Z,48.15
2019-02-25T08:37:45.704Z,39.48
2019-02-25T08:40:38.557Z,33.98
2019-02-25T08:43:29.017Z,37.38
2019-02-25T08:46:17.016Z,37.23
2019-02-25T08:49:03.114Z,40.40
2019-02-25T08:51:34.830Z,44.73
2019-02-25T08:54:08.455Z,43.98
2019-02-25T08:56:39.877Z,31.68
2019-02-25T08:59:15.530Z,41.73
2019-02-25T09:01:49.855Z,34.95
2019-02-25T09:04:25.127Z,40.38
2019-02-25T09:06:57.116Z,36.90
2019-02-25T09:09:28.504Z,34.98
2019-02-25T09:11:58.753Z,56.08
2019-02-25T09:14:30.174Z,43.68
2019-02-25T09:17:00.418Z,41.20
2019-02-25T09:19:33.480Z,42.23
2019-02-25T09:22:03.738Z,49.93
2019-02-25T09:24:40.857Z,48.48
2019-02-25T09:27:14.064Z,45.63
2019-02-25T09:29:47.181Z,42.35
2019-02-25T09:32:19.033Z,49.48
2019-02-25T09:34:49.474Z,57.55
2019-02-25T09:37:26.058Z,46.73
2019-02-25T09:39:58.259Z,37.75
2019-02-25T09:42:31.773Z,51.33
2019-02-25T09:45:09.529Z,41.18
2019-02-25T09:47:39.953Z,42.13
2019-02-25T09:50:14.077Z,41.65
2019-02-25T09:52:44.372Z,44.55
2019-02-25T09:55:18.432Z,47.88
2019-02-25T09:57:48.814Z,37.88
2019-02-25T10:00:24.092Z,43.13
2019-02-25T10:02:54.484Z,49.13
2019-02-25T10:05:24.714Z,38.90
2019-02-25T10:07:57.068Z,41.20
2019-02-25T10:10:32.330Z,46.63
2019-02-25T10:13:05.815Z,42.20
2019-02-25T10:15:36.062Z,35.45
2019-02-25T10:18:10.162Z,37.90
2019-02-25T10:20:40.494Z,39.50
2019-02-25T10:23:12.845Z,45.80
2019-02-25T10:25:47.164Z,47.10
2019-02-25T10:28:21.581Z,43.23
2019-02-25T10:30:53.472Z,42.48
2019-02-25T10:33:23.717Z,40.03
2019-02-25T10:35:55.562Z,32.25
2019-02-25T10:38:25.849Z,42.65
2019-02-25T10:40:56.098Z,47.03
2019-02-25T10:43:29.538Z,22.37
2019-02-25T10:46:01.757Z,46.25
2019-02-25T10:48:34.123Z,37.75
2019-02-25T10:51:09.327Z,43.85
2019-02-25T10:53:39.608Z,41.37
2019-02-25T10:56:14.527Z,36.25
2019-02-25T10:58:45.250Z,32.53
2019-02-25T11:01:19.727Z,37.33
2019-02-25T11:03:50.040Z,42.40
2019-02-25T11:06:21.023Z,29.67
2019-02-25T11:08:54.028Z,31.50
2019-02-25T11:11:28.917Z,32.80
2019-02-25T11:14:00.871Z,28.80
2019-02-25T11:16:32.754Z,29.27
2019-02-25T11:19:03.004Z,30.05
2019-02-25T11:21:35.200Z,26.85
2019-02-25T11:24:05.206Z,27.95
2019-02-25T11:26:35.492Z,28.75
2019-02-25T11:29:11.718Z,30.05
2019-02-25T11:31:45.726Z,29.52
2019-02-25T11:34:23.078Z,29.45
2019-02-25T11:36:57.197Z,28.10
2019-02-25T11:39:32.686Z,30.20
2019-02-25T11:42:05.088Z,45.63
2019-02-25T11:44:35.228Z,23.98
2019-02-25T11:47:07.105Z,47.23
2019-02-25T11:49:37.517Z,27.22
2019-02-25T11:52:08.445Z,21.15
2019-02-25T11:54:38.882Z,21.17
2019-02-25T11:57:09.133Z,21.82
2019-02-25T11:59:40.563Z,34.40
2019-02-25T12:02:10.804Z,18.55
2019-02-25T12:04:42.252Z,16.65
2019-02-25T12:07:12.589Z,23.70
2019-02-25T12:09:44.644Z,17.55
2019-02-25T12:12:17.878Z,24.23
2019-02-25T12:14:51.737Z,27.52
2019-02-25T12:17:22.024Z,21.35
2019-02-25T12:19:54.009Z,29.85
2019-02-25T12:22:24.243Z,18.55
2019-02-25T12:24:54.496Z,25.88
2019-02-25T12:27:25.931Z,29.23
2019-02-25T12:29:57.365Z,28.60
2019-02-25T12:32:28.815Z,21.40
2019-02-25T12:34:59.066Z,26.85
2019-02-25T12:37:29.322Z,109.40
2019-02-25T12:39:59.569Z,20.48
2019-02-25T12:42:29.817Z,51.10
2019-02-25T12:45:00.114Z,21.00
2019-02-25T12:47:33.507Z,35.98
2019-02-25T12:50:06.150Z,24.80
2019-02-25T12:52:36.436Z,31.27
2019-02-25T12:55:09.824Z,26.50
2019-02-25T12:57:40.070Z,21.85
2019-02-25T13:00:17.927Z,22.60
2019-02-25T13:02:48.277Z,18.17
2019-02-25T13:05:20.561Z,24.37
2019-02-25T13:07:50.814Z,16.57
2019-02-25T13:10:21.055Z,12.35
2019-02-25T13:12:51.774Z,12.07
2019-02-25T13:15:24.561Z,21.33
2019-02-25T13:17:54.820Z,20.35
2019-02-25T13:20:25.067Z,16.62
2019-02-25T13:22:55.315Z,15.78
2019-02-25T13:25:28.200Z,19.57
2019-02-25T13:27:59.440Z,15.58
2019-02-25T13:30:30.385Z,18.00
2019-02-25T13:33:01.807Z,18.05
2019-02-25T13:35:32.055Z,18.25
2019-02-25T13:38:02.300Z,15.88
2019-02-25T13:40:32.826Z,11.48
2019-02-25T13:43:03.076Z,11.80
2019-02-25T13:45:33.320Z,12.23
2019-02-25T13:48:05.122Z,14.45
2019-02-25T13:50:35.378Z,13.98
2019-02-25T13:53:06.658Z,17.55
2019-02-25T13:55:37.182Z,17.27
2019-02-25T13:58:07.442Z,13.90
2019-02-25T14:00:37.715Z,19.73
2019-02-25T14:03:08.664Z,29.12
2019-02-25T14:05:38.915Z,19.17
2019-02-25T14:08:10.926Z,21.50
2019-02-25T14:10:42.533Z,64.90
2019-02-25T14:13:13.574Z,44.15
2019-02-25T14:15:45.466Z,89.85
2019-02-25T14:18:16.302Z,29.52
2019-02-25T14:20:46.554Z,114.15
2019-02-25T14:23:18.451Z,157.85
2019-02-25T14:25:48.998Z,105.37
2019-02-25T14:28:19.313Z,51.55
2019-02-25T14:30:51.606Z,171.45
2019-02-25T14:33:23.589Z,181.02
2019-02-25T14:35:53.981Z,63.48
2019-02-25T14:38:27.130Z,20.92
2019-02-25T14:40:57.723Z,55.90
2019-02-25T14:43:29.184Z,340.57
2019-02-25T14:46:01.452Z,222.85
2019-02-25T14:48:32.851Z,524.60
2019-02-25T14:51:04.692Z,401.63
2019-02-25T14:53:34.998Z,429.48
2019-02-25T14:56:07.912Z,231.38
2019-02-25T14:58:40.202Z,59.48
2019-02-25T15:01:10.340Z,495.30
2019-02-25T15:03:42.712Z,566.70
2019-02-25T15:06:21.276Z,457.80
2019-02-25T15:08:52.491Z,451.15
2019-02-25T15:11:22.875Z,41.48
2019-02-25T15:13:54.331Z,24.00
2019-02-25T15:16:25.783Z,22.58
2019-02-25T15:18:56.032Z,17.62
2019-02-25T15:21:26.309Z,25.27
2019-02-25T15:24:00.037Z,18.07
2019-02-25T15:26:30.311Z,11.88
2019-02-25T15:29:02.913Z,14.07
2019-02-25T15:31:34.700Z,14.35
2019-02-25T15:34:05.036Z,9.68
2019-02-25T15:36:36.472Z,21.17
2019-02-25T15:39:10.896Z,21.25
2019-02-25T15:41:44.090Z,39.75
2019-02-25T15:44:15.251Z,19.62
2019-02-25T15:46:45.542Z,22.20
2019-02-25T15:49:17.244Z,16.12
2019-02-25T15:51:49.820Z,18.55
2019-02-25T15:54:22.904Z,28.27
2019-02-25T15:56:54.614Z,16.73
2019-02-25T15:59:32.038Z,14.07
2019-02-25T16:02:03.491Z,16.97
2019-02-25T16:04:38.103Z,20.37
2019-02-25T16:07:10.523Z,24.05
2019-02-25T16:09:40.998Z,19.95
2019-02-25T16:12:11.249Z,19.32
2019-02-25T16:14:42.243Z,23.05
2019-02-25T16:17:13.718Z,24.90
2019-02-25T16:19:47.815Z,24.20
2019-02-25T16:22:19.992Z,27.32
2019-02-25T16:24:50.421Z,26.52
2019-02-25T16:27:23.246Z,42.08
2019-02-25T16:29:58.064Z,23.60
2019-02-25T16:32:31.841Z,29.60
2019-02-25T16:35:03.167Z,26.42
2019-02-25T16:37:35.525Z,25.17
2019-02-25T16:40:17.616Z,31.55
2019-02-25T16:42:48.316Z,49.00
2019-02-25T16:45:21.412Z,45.63
2019-02-25T16:47:51.834Z,39.27
2019-02-25T16:50:24.751Z,41.20
2019-02-25T16:52:56.907Z,47.90
2019-02-25T16:55:29.308Z,62.00
2019-02-25T16:58:03.597Z,52.83
2019-02-25T17:00:35.460Z,45.95
2019-02-25T17:03:06.660Z,38.70
2019-02-25T17:05:40.314Z,47.08
2019-02-25T17:08:12.891Z,54.85
2019-02-25T17:10:43.194Z,39.95
2019-02-25T17:13:15.437Z,37.80
2019-02-25T17:15:47.652Z,37.95
2019-02-25T17:18:20.612Z,48.02
2019-02-25T17:20:52.073Z,34.63
2019-02-25T17:23:27.195Z,34.30
2019-02-25T17:25:56.514Z,52.43
2019-02-25T17:28:27.448Z,39.67
2019-02-25T17:30:57.884Z,46.50
2019-02-25T17:33:28.762Z,41.20
2019-02-25T17:36:00.237Z,40.28
2019-02-25T17:38:30.668Z,38.20
2019-02-25T17:41:03.308Z,51.50
2019-02-25T17:43:34.247Z,59.03
2019-02-25T17:46:06.974Z,60.98
2019-02-25T17:48:39.209Z,58.78
2019-02-25T17:51:10.400Z,57.95
2019-02-25T17:53:41.532Z,54.53
2019-02-25T17:56:13.924Z,50.92
2019-02-25T17:58:46.867Z,51.80
2019-02-25T18:01:19.670Z,41.90
2019-02-25T18:03:53.557Z,36.75
2019-02-25T18:06:29.604Z,38.93
2019-02-25T18:08:58.247Z,49.03
2019-02-25T18:11:30.702Z,45.98
2019-02-25T18:14:01.127Z,45.65
2019-02-25T18:16:33.191Z,57.65
2019-02-25T18:19:03.421Z,60.63
2019-02-25T18:21:34.864Z,54.65
2019-02-25T18:24:05.117Z,47.93
2019-02-25T18:26:37.772Z,53.93
2019-02-25T18:29:09.424Z,60.78
2019-02-25T18:31:44.972Z,56.13
2019-02-25T18:34:16.439Z,56.37
2019-02-25T18:36:48.945Z,63.42
2019-02-25T18:39:23.135Z,53.95
2019-02-25T18:41:55.556Z,65.40
2019-02-25T18:44:29.105Z,61.03
2019-02-25T18:46:59.990Z,68.02
2019-02-25T18:49:32.518Z,57.27
2019-02-25T18:52:02.437Z,64.03
2019-02-25T18:54:39.656Z,73.90
2019-02-25T18:57:11.812Z,67.27
2019-02-25T18:59:43.238Z,87.90
2019-02-25T19:02:16.651Z,89.10
2019-02-25T19:04:48.140Z,84.77
2019-02-25T19:07:20.225Z,60.40
2019-02-25T19:09:51.675Z,61.63
2019-02-25T19:12:23.162Z,51.07
2019-02-25T19:14:55.740Z,64.33
2019-02-25T19:17:27.519Z,38.50
2019-02-25T19:19:58.574Z,45.47
2019-02-25T19:22:30.608Z,47.60
2019-02-25T19:25:00.909Z,46.67
2019-02-25T19:27:34.110Z,47.90
2019-02-25T19:30:10.003Z,46.03
2019-02-25T19:32:41.235Z,52.00
2019-02-25T19:35:12.101Z,45.17
2019-02-25T19:37:44.425Z,38.97
2019-02-25T19:40:26.691Z,43.57
2019-02-25T19:42:58.816Z,46.87
2019-02-25T19:45:29.337Z,50.13
2019-02-25T19:48:02.487Z,52.67
2019-02-25T19:50:34.807Z,59.13
2019-02-25T19:53:07.640Z,57.30
2019-02-25T19:55:40.461Z,45.43
2019-02-25T19:58:11.878Z,42.37
2019-02-25T20:00:44.970Z,47.97
2019-02-25T20:03:15.256Z,39.23
2019-02-25T20:05:51.979Z,42.37
2019-02-25T20:08:23.253Z,41.80
2019-02-25T20:10:56.248Z,45.63
2019-02-25T20:13:28.917Z,40.30
2019-02-25T20:16:07.858Z,56.63
2019-02-25T20:18:37.722Z,35.93
2019-02-25T20:21:09.335Z,39.00
2019-02-25T20:23:40.804Z,44.40
2019-02-25T20:26:13.487Z,35.27
2019-02-25T20:28:46.215Z,32.03
2019-02-25T20:31:16.818Z,38.93
2019-02-25T20:33:47.214Z,30.77
2019-02-25T20:36:21.362Z,27.48
2019-02-25T20:38:49.493Z,29.93
2019-02-25T20:41:26.228Z,31.73
2019-02-25T20:44:00.715Z,23.47
2019-02-25T20:46:35.316Z,21.87
2019-02-25T20:49:07.259Z,28.77
2019-02-25T20:51:40.103Z,25.13
2019-02-25T20:54:17.769Z,23.05
2019-02-25T20:56:55.508Z,26.05
2019-02-25T20:59:32.325Z,30.03
2019-02-25T21:02:04.849Z,31.82
2019-02-25T21:04:43.348Z,42.60
2019-02-25T21:07:18.971Z,36.87
2019-02-25T21:09:52.826Z,87.67
2019-02-25T21:12:23.235Z,34.30
2019-02-25T21:14:54.678Z,33.73
2019-02-25T21:17:35.550Z,57.08
2019-02-25T21:20:14.615Z,56.83
2019-02-25T21:22:52.442Z,65.50
2019-02-25T21:25:24.439Z,30.00
2019-02-25T21:27:55.174Z,22.58
2019-02-25T21:30:24.868Z,23.73
2019-02-25T21:32:59.056Z,28.23
2019-02-25T21:35:30.125Z,29.70
2019-02-25T21:38:02.486Z,32.43
2019-02-25T21:40:32.906Z,26.60
2019-02-25T21:43:06.549Z,23.50
2019-02-25T21:45:37.328Z,18.77
2019-02-25T21:48:13.939Z,18.48
2019-02-25T21:50:45.400Z,25.90
2019-02-25T21:53:18.286Z,16.07
2019-02-25T21:55:51.092Z,43.87
2019-02-25T21:58:23.194Z,262.72
2019-02-25T22:00:53.326Z,108.70
2019-02-25T22:03:24.787Z,134.10
2019-02-25T22:05:58.751Z,41.20
2019-02-25T22:08:31.364Z,305.70
2019-02-25T22:11:12.572Z,33.23
2019-02-25T22:13:34.587Z,26.85
2019-02-25T22:16:08.045Z,17.62
2019-02-25T22:18:41.972Z,23.10
2019-02-25T22:21:14.208Z,17.92
2019-02-25T22:23:44.670Z,21.52
2019-02-25T22:26:14.927Z,18.00
2019-02-25T22:28:46.362Z,19.30
2019-02-25T22:31:18.194Z,19.00
2019-02-25T22:33:50.326Z,18.90
2019-02-25T22:36:21.761Z,12.10
2019-02-25T22:38:52.170Z,21.30
2019-02-25T22:41:25.090Z,17.27
2019-02-25T22:43:55.659Z,17.32
2019-02-25T22:46:29.791Z,19.05
2019-02-25T22:49:00.864Z,15.13
2019-02-25T22:51:33.054Z,20.35
2019-02-25T22:54:03.637Z,12.00
2019-02-25T22:56:35.392Z,19.73
2019-02-25T22:59:06.839Z,18.55
2019-02-25T23:01:38.452Z,14.60
2019-02-25T23:04:11.151Z,15.88
2019-02-25T23:06:43.917Z,13.90
2019-02-25T23:09:14.379Z,14.30
2019-02-25T23:11:48.205Z,12.53
2019-02-25T23:14:18.296Z,15.10
2019-02-25T23:16:49.747Z,20.77
2019-02-25T23:19:22.525Z,17.23
2019-02-25T23:21:52.971Z,15.58
2019-02-25T23:24:27.986Z,17.50
2019-02-25T23:26:59.515Z,19.35
2019-02-25T23:29:29.592Z,23.05
2019-02-25T23:32:02.534Z,13.05
2019-02-25T23:34:35.900Z,22.55
2019-02-25T23:37:08.356Z,19.40
2019-02-25T23:39:40.520Z,17.02
2019-02-25T23:42:13.496Z,22.48
2019-02-25T23:44:43.707Z,15.60
2019-02-25T23:47:16.099Z,19.75
2019-02-25T23:49:48.633Z,18.87
2019-02-25T23:52:19.005Z,19.30
2019-02-25T23:54:51.969Z,16.82
2019-02-25T23:57:23.937Z,17.67
2019-02-25T23:59:55.777Z,21.05
